Terminal Aerodrome Forecast
Issued by NWS

Home | Current Version | Previous Version | Text Only | Print | Product List | Glossary On
Versions: 1 2 3 4 5 6 7 8 9 10 11 12 13 14 15 16 17 18 19 20 21 22 23 24 25 26 27 28 29 30 31 32 33 34
253
FTUS44 KJAN 101339 AAB
TAFPIB
TAF AMD
KPIB 101339Z 1014/1112 35009KT 4SM -RA BR BKN005 OVC010
     FM101800 01009KT 2SM -RA BR OVC007
     FM102100 01012KT 4SM -RA BR OVC007
     FM110000 35015G21KT 6SM -RA BR OVC007
     FM110300 36013KT P6SM VCSH OVC015
     FM110800 01010KT P6SM OVC015=

USA.gov is the U.S. government's official web portal to all federal, state and local government web resources and services.